createdAt,value
2022-08-09T00:00:00.408Z,71.67
2022-08-09T00:02:58.123Z,71.89
2022-08-09T00:06:15.822Z,71.83
2022-08-09T00:08:31.993Z,71.89
2022-08-09T00:11:05.565Z,71.58
2022-08-09T00:13:38.444Z,71.53
2022-08-09T00:16:09.501Z,71.58
2022-08-09T00:18:41.311Z,71.62
2022-08-09T00:21:11.419Z,71.64
2022-08-09T00:23:57.991Z,71.70
2022-08-09T00:26:33.137Z,71.87
2022-08-09T00:29:02.713Z,71.62
2022-08-09T00:31:59.168Z,71.89
2022-08-09T00:34:20.375Z,71.92
2022-08-09T00:36:49.337Z,71.98
2022-08-09T00:40:13.802Z,72.34
2022-08-09T00:44:11.081Z,72.20
2022-08-09T00:44:56.231Z,72.22
2022-08-09T00:47:25.926Z,72.25
2022-08-09T00:50:01.591Z,72.11
2022-08-09T00:52:31.221Z,72.10
2022-08-09T00:55:03.240Z,72.35
2022-08-09T00:57:33.738Z,72.49
2022-08-09T01:00:21.145Z,72.55
2022-08-09T01:06:17.509Z,72.58
2022-08-09T01:09:11.736Z,72.91
2022-08-09T01:12:05.569Z,73.13
2022-08-09T01:14:44.286Z,73.28
2022-08-09T01:17:22.756Z,73.46
2022-08-09T01:20:02.377Z,73.71
2022-08-09T01:24:01.176Z,73.92
2022-08-09T01:26:18.343Z,73.94
2022-08-09T01:28:50.560Z,73.96
2022-08-09T01:31:23.389Z,74.09
2022-08-09T01:34:17.801Z,74.19
2022-08-09T01:36:49.181Z,74.26
2022-08-09T01:39:18.064Z,74.34
2022-08-09T01:41:59.880Z,74.39
2022-08-09T01:44:31.613Z,74.45
2022-08-09T01:47:02.949Z,74.46
2022-08-09T01:49:38.737Z,74.53
2022-08-09T01:52:10.692Z,74.84
2022-08-09T01:54:44.551Z,74.70
2022-08-09T01:57:44.255Z,74.85
2022-08-09T02:00:34.933Z,75.06
2022-08-09T02:03:06.658Z,75.02
2022-08-09T02:05:53.447Z,75.07
2022-08-09T02:08:35.764Z,74.86
2022-08-09T02:11:17.078Z,74.81
2022-08-09T02:13:55.433Z,74.75
2022-08-09T02:16:59.111Z,74.92
2022-08-09T02:19:38.968Z,74.94
2022-08-09T02:22:31.681Z,74.81
2022-08-09T02:25:08.718Z,75.02
2022-08-09T02:27:57.692Z,75.04
2022-08-09T02:30:30.495Z,75.10
2022-08-09T02:33:00.899Z,75.17
2022-08-09T02:36:01.370Z,75.12
2022-08-09T02:38:28.839Z,75.46
2022-08-09T02:41:10.688Z,75.57
2022-08-09T02:43:54.643Z,75.71
2022-08-09T02:46:28.443Z,75.58
2022-08-09T02:49:01.335Z,75.79
2022-08-09T02:51:40.189Z,76.03
2022-08-09T02:54:14.009Z,76.24
2022-08-09T02:56:51.562Z,76.48
2022-08-09T02:59:36.603Z,76.34
2022-08-09T03:02:12.025Z,76.36
2022-08-09T03:04:42.704Z,76.26
2022-08-09T03:07:14.253Z,76.24
2022-08-09T03:09:54.232Z,76.22
2022-08-09T03:12:26.602Z,76.19
2022-08-09T03:14:56.756Z,76.47
2022-08-09T03:17:26.985Z,76.64
2022-08-09T03:20:03.051Z,76.65
2022-08-09T03:22:41.440Z,76.86
2022-08-09T03:25:21.767Z,76.93
2022-08-09T03:27:56.720Z,76.75
2022-08-09T03:30:29.861Z,76.68
2022-08-09T03:33:17.518Z,77.05
2022-08-09T03:36:13.381Z,77.41
2022-08-09T03:38:41.854Z,77.56
2022-08-09T03:41:15.084Z,77.59
2022-08-09T03:44:03.430Z,77.50
2022-08-09T03:46:35.169Z,77.46
2022-08-09T03:49:08.895Z,77.28
2022-08-09T03:51:58.554Z,77.20
2022-08-09T03:54:34.846Z,77.21
2022-08-09T03:57:20.209Z,77.35
2022-08-09T03:59:55.422Z,77.34
2022-08-09T04:02:28.287Z,77.53
2022-08-09T04:05:00.680Z,77.65
2022-08-09T04:07:33.809Z,77.52
2022-08-09T04:10:29.419Z,77.45
2022-08-09T04:13:11.558Z,78.02
2022-08-09T04:16:17.608Z,78.28
2022-08-09T04:18:28.923Z,78.59
2022-08-09T04:20:57.301Z,79.04
2022-08-09T04:23:25.742Z,79.13
2022-08-09T04:25:55.827Z,79.10
2022-08-09T04:28:30.827Z,79.35
2022-08-09T04:31:09.926Z,79.43
2022-08-09T04:33:51.754Z,79.48
2022-08-09T04:36:24.514Z,79.70
2022-08-09T04:38:54.301Z,79.87
2022-08-09T04:41:24.439Z,79.72
2022-08-09T04:44:07.052Z,79.87
2022-08-09T04:46:58.909Z,79.81
2022-08-09T04:49:52.375Z,79.54
2022-08-09T04:52:27.103Z,79.46
2022-08-09T04:54:57.605Z,79.19
2022-08-09T04:57:59.342Z,79.05
2022-08-09T05:00:17.275Z,79.13
2022-08-09T05:02:48.686Z,79.21
2022-08-09T05:05:31.965Z,79.33
2022-08-09T05:08:13.824Z,79.06
2022-08-09T05:10:44.404Z,78.85
2022-08-09T05:13:14.224Z,78.80
2022-08-09T05:15:47.967Z,78.79
2022-08-09T05:18:38.330Z,78.71
2022-08-09T05:21:13.346Z,78.51
2022-08-09T05:23:58.502Z,78.57
2022-08-09T05:26:36.743Z,78.51
2022-08-09T05:29:23.998Z,78.45
2022-08-09T05:31:58.357Z,78.19
2022-08-09T05:34:30.830Z,77.95
2022-08-09T05:37:11.231Z,77.96
2022-08-09T05:39:43.797Z,77.68
2022-08-09T05:42:18.043Z,77.85
2022-08-09T05:44:54.442Z,77.65
2022-08-09T05:47:24.925Z,76.94
2022-08-09T05:50:29.934Z,76.37
2022-08-09T05:52:53.575Z,75.99
2022-08-09T05:55:24.222Z,75.91
2022-08-09T05:57:56.475Z,75.51
2022-08-09T06:00:28.751Z,74.62
2022-08-09T06:02:59.463Z,74.66
2022-08-09T06:05:57.245Z,74.65
2022-08-09T06:08:24.479Z,74.28
2022-08-09T06:10:55.732Z,74.15
2022-08-09T06:13:25.352Z,74.00
2022-08-09T06:15:57.213Z,72.85
2022-08-09T06:18:28.382Z,71.70
2022-08-09T06:20:58.411Z,71.28
2022-08-09T06:23:55.700Z,71.48
2022-08-09T06:26:22.763Z,71.17
2022-08-09T06:29:00.004Z,71.22
2022-08-09T06:31:39.417Z,70.79
2022-08-09T06:34:19.404Z,70.93
2022-08-09T06:36:47.977Z,70.96
2022-08-09T06:39:17.260Z,70.95
2022-08-09T06:42:09.092Z,70.57
2022-08-09T06:44:34.039Z,69.95
2022-08-09T06:47:04.054Z,69.39
2022-08-09T06:50:12.104Z,69.35
2022-08-09T06:52:25.091Z,69.55
2022-08-09T06:54:54.341Z,70.16
2022-08-09T06:57:25.736Z,69.41
2022-08-09T07:00:57.275Z,69.00
2022-08-09T07:03:00.602Z,69.76
2022-08-09T07:05:58.280Z,69.69
2022-08-09T07:08:22.365Z,69.97
2022-08-09T07:10:53.339Z,69.80
2022-08-09T07:13:28.237Z,69.58
2022-08-09T07:16:43.014Z,70.15
2022-08-09T07:18:47.507Z,68.90
2022-08-09T07:21:19.982Z,68.66
2022-08-09T07:23:57.766Z,68.21
2022-08-09T07:26:26.924Z,67.89
2022-08-09T07:29:08.635Z,66.67
2022-08-09T07:31:45.321Z,66.10
2022-08-09T07:34:20.576Z,66.11
2022-08-09T07:36:49.905Z,65.94
2022-08-09T07:39:20.436Z,64.89
2022-08-09T07:42:07.948Z,64.16
2022-08-09T07:44:52.473Z,63.48
2022-08-09T07:47:23.468Z,63.64
2022-08-09T07:50:04.643Z,63.54
2022-08-09T07:52:35.835Z,63.39
2022-08-09T07:55:08.929Z,63.33
2022-08-09T07:57:47.027Z,63.16
2022-08-09T08:00:20.840Z,63.04
2022-08-09T08:03:05.346Z,62.12
2022-08-09T08:05:53.609Z,62.36
2022-08-09T08:09:01.060Z,61.82
2022-08-09T08:12:25.103Z,61.03
2022-08-09T08:14:02.320Z,60.56
2022-08-09T08:16:32.548Z,59.87
2022-08-09T08:19:04.555Z,60.23
2022-08-09T08:21:33.448Z,59.93
2022-08-09T08:24:11.947Z,59.06
2022-08-09T08:26:55.790Z,59.00
2022-08-09T08:29:28.645Z,60.15
2022-08-09T08:32:08.321Z,58.90
2022-08-09T08:34:41.372Z,59.09
2022-08-09T08:37:15.527Z,58.95
2022-08-09T08:39:44.458Z,57.97
2022-08-09T08:42:13.598Z,57.03
2022-08-09T08:44:43.994Z,57.06
2022-08-09T08:47:16.296Z,57.97
2022-08-09T08:49:46.773Z,56.91
2022-08-09T08:55:08.128Z,57.19
2022-08-09T08:57:37.421Z,56.81
2022-08-09T09:00:16.853Z,55.44
2022-08-09T09:02:52.754Z,55.13
2022-08-09T09:05:57.832Z,54.19
2022-08-09T09:08:30.667Z,54.26
2022-08-09T09:11:04.618Z,53.88
2022-08-09T09:13:47.318Z,54.48
2022-08-09T09:16:30.494Z,53.67
2022-08-09T09:19:36.773Z,54.13
2022-08-09T09:22:03.860Z,54.25
2022-08-09T09:24:39.633Z,53.24
2022-08-09T09:28:02.787Z,52.85
2022-08-09T09:30:20.141Z,53.48
2022-08-09T09:33:15.830Z,54.16
2022-08-09T09:36:02.772Z,53.58
2022-08-09T09:38:57.433Z,53.90
2022-08-09T09:41:33.017Z,53.88
2022-08-09T09:44:10.991Z,53.56
2022-08-09T09:46:50.717Z,52.76
2022-08-09T09:49:31.776Z,51.10
2022-08-09T09:52:16.630Z,51.49
2022-08-09T09:55:16.332Z,51.40
2022-08-09T09:58:17.883Z,52.88
2022-08-09T10:01:00.900Z,52.58
2022-08-09T10:03:57.801Z,52.35
2022-08-09T10:06:52.044Z,52.06
2022-08-09T10:09:27.130Z,52.28
2022-08-09T10:12:12.317Z,51.67
2022-08-09T10:14:51.646Z,50.95
2022-08-09T10:17:50.945Z,51.51
2022-08-09T10:20:32.111Z,51.71
2022-08-09T10:23:16.918Z,50.99
2022-08-09T10:26:06.033Z,50.41
2022-08-09T10:28:37.787Z,51.13
2022-08-09T10:34:08.451Z,51.31
2022-08-09T10:36:42.190Z,52.00
2022-08-09T10:39:15.559Z,51.88
2022-08-09T10:41:47.424Z,51.51
2022-08-09T10:44:24.822Z,51.21
2022-08-09T10:48:12.589Z,51.05
2022-08-09T10:50:05.728Z,50.74
2022-08-09T10:52:34.426Z,51.31
2022-08-09T10:55:24.169Z,50.98
2022-08-09T10:57:56.077Z,51.76
2022-08-09T11:00:31.553Z,51.83
2022-08-09T11:03:15.055Z,51.74
2022-08-09T11:06:23.003Z,51.85
2022-08-09T11:08:53.280Z,51.81
2022-08-09T11:11:23.430Z,51.41
2022-08-09T11:14:31.886Z,52.01
2022-08-09T11:17:06.006Z,51.54
2022-08-09T11:20:12.025Z,51.30
2022-08-09T11:22:45.574Z,50.98
2022-08-09T11:25:25.882Z,50.75
2022-08-09T11:28:34.074Z,51.45
2022-08-09T11:31:36.411Z,50.83
2022-08-09T11:34:15.000Z,51.15
2022-08-09T11:36:49.100Z,51.10
2022-08-09T11:39:17.752Z,51.20
2022-08-09T11:41:46.115Z,50.66
2022-08-09T11:44:18.042Z,51.28
2022-08-09T11:46:59.731Z,50.07
2022-08-09T11:50:53.221Z,50.47
2022-08-09T11:53:15.217Z,50.96
2022-08-09T11:56:02.587Z,51.70
2022-08-09T11:58:51.603Z,51.90
2022-08-09T12:02:16.155Z,50.62
2022-08-09T12:04:28.610Z,51.00
2022-08-09T12:07:01.058Z,50.72
2022-08-09T12:09:33.885Z,49.29
2022-08-09T12:12:13.338Z,49.06
2022-08-09T12:15:07.812Z,49.79
2022-08-09T12:17:43.283Z,50.08
2022-08-09T12:20:16.197Z,50.31
2022-08-09T12:22:50.537Z,48.83
2022-08-09T12:25:36.637Z,48.60
2022-08-09T12:28:59.532Z,48.84
2022-08-09T12:31:31.188Z,48.79
2022-08-09T12:34:09.878Z,49.20
2022-08-09T12:36:59.021Z,49.63
2022-08-09T12:39:59.757Z,49.28
2022-08-09T12:42:30.171Z,48.90
2022-08-09T12:44:59.494Z,49.20
2022-08-09T12:47:32.877Z,49.76
2022-08-09T12:50:25.151Z,49.31
2022-08-09T12:53:09.328Z,49.10
2022-08-09T12:56:14.242Z,48.79
2022-08-09T12:58:30.780Z,48.32
2022-08-09T13:01:04.510Z,48.86
2022-08-09T13:03:53.804Z,49.23
2022-08-09T13:06:42.046Z,48.68
2022-08-09T13:09:24.154Z,48.04
2022-08-09T13:12:02.487Z,49.03
2022-08-09T13:14:41.764Z,49.04
2022-08-09T13:17:44.000Z,48.59
2022-08-09T13:20:16.267Z,48.61
2022-08-09T13:23:05.285Z,48.60
2022-08-09T13:25:54.617Z,49.18
2022-08-09T13:28:34.475Z,48.98
2022-08-09T13:32:15.825Z,48.88
2022-08-09T13:34:00.195Z,49.11
2022-08-09T13:36:41.401Z,48.70
2022-08-09T13:41:17.619Z,48.67
2022-08-09T13:42:11.825Z,48.92
2022-08-09T13:44:43.207Z,48.75
2022-08-09T13:47:31.309Z,48.42
2022-08-09T13:50:12.866Z,49.13
2022-08-09T13:52:48.007Z,48.50
2022-08-09T13:55:17.708Z,48.99
2022-08-09T13:57:56.000Z,48.45
2022-08-09T14:00:29.141Z,48.51
2022-08-09T14:03:16.799Z,48.24
2022-08-09T14:05:58.478Z,48.46
2022-08-09T14:08:31.559Z,48.28
2022-08-09T14:11:01.166Z,47.99
2022-08-09T14:14:22.123Z,47.98
2022-08-09T14:16:28.736Z,48.09
2022-08-09T14:18:58.444Z,48.59
2022-08-09T14:21:29.367Z,47.72
2022-08-09T14:24:01.293Z,48.42
2022-08-09T14:26:39.004Z,48.71
2022-08-09T14:30:15.049Z,48.33
2022-08-09T14:32:10.801Z,47.49
2022-08-09T14:34:42.015Z,47.83
2022-08-09T14:37:11.712Z,47.60
2022-08-09T14:39:47.455Z,47.63
2022-08-09T14:42:40.250Z,47.58
2022-08-09T14:46:40.481Z,47.69
2022-08-09T14:48:02.379Z,47.92
2022-08-09T14:50:35.136Z,48.82
2022-08-09T14:53:11.329Z,48.53
2022-08-09T14:55:48.099Z,48.72
2022-08-09T14:58:19.788Z,48.44
2022-08-09T15:00:51.133Z,48.69
2022-08-09T15:03:21.200Z,49.08
2022-08-09T15:05:53.808Z,49.26
2022-08-09T15:08:30.356Z,49.70
2022-08-09T15:11:00.342Z,49.62
2022-08-09T15:13:48.097Z,48.85
2022-08-09T15:16:18.825Z,48.89
2022-08-09T15:18:48.453Z,49.67
2022-08-09T15:21:55.463Z,49.05
2022-08-09T15:24:12.771Z,49.07
2022-08-09T15:26:45.475Z,49.17
2022-08-09T15:30:58.761Z,49.05
2022-08-09T15:32:04.677Z,49.09
2022-08-09T15:34:35.276Z,49.49
2022-08-09T15:37:37.417Z,49.47
2022-08-09T15:40:21.855Z,49.28
2022-08-09T15:42:53.872Z,49.45
2022-08-09T15:45:29.338Z,49.03
2022-08-09T15:48:07.641Z,49.02
2022-08-09T15:50:50.563Z,49.09
2022-08-09T15:53:19.748Z,49.18
2022-08-09T15:56:28.521Z,49.47
2022-08-09T15:58:56.035Z,49.18
2022-08-09T16:01:24.992Z,49.05
2022-08-09T16:03:54.489Z,49.25
2022-08-09T16:06:32.739Z,49.28
2022-08-09T16:09:05.964Z,49.92
2022-08-09T16:11:34.497Z,49.86
2022-08-09T16:14:07.709Z,49.95
2022-08-09T16:16:39.081Z,50.16
2022-08-09T16:19:14.238Z,50.27
2022-08-09T16:21:51.849Z,50.46
2022-08-09T16:24:32.852Z,50.57
2022-08-09T16:27:05.857Z,51.06
2022-08-09T16:29:37.342Z,51.56
2022-08-09T16:32:18.159Z,52.01
2022-08-09T16:34:57.971Z,52.93
2022-08-09T16:37:55.413Z,54.20
2022-08-09T16:40:29.472Z,55.27
2022-08-09T16:43:05.202Z,56.16
2022-08-09T16:45:43.701Z,56.84
2022-08-09T16:48:38.779Z,57.24
2022-08-09T16:51:08.201Z,58.03
2022-08-09T16:56:33.368Z,58.91
2022-08-09T16:59:06.801Z,58.92
2022-08-09T17:01:39.369Z,59.16
2022-08-09T17:04:24.418Z,59.52
2022-08-09T17:08:40.848Z,59.80
2022-08-09T17:09:47.670Z,60.22
2022-08-09T17:12:17.023Z,60.46
2022-08-09T17:14:48.501Z,60.66
2022-08-09T17:17:25.922Z,60.79
2022-08-09T17:20:33.190Z,60.85
2022-08-09T17:22:52.217Z,60.91
2022-08-09T17:25:22.141Z,61.04
2022-08-09T17:27:54.026Z,61.28
2022-08-09T17:30:25.858Z,61.47
2022-08-09T17:33:00.982Z,61.42
2022-08-09T17:35:36.143Z,61.63
2022-08-09T17:38:24.435Z,61.78
2022-08-09T17:41:00.323Z,61.75
2022-08-09T17:43:37.044Z,62.10
2022-08-09T17:46:09.204Z,61.78
2022-08-09T17:48:51.870Z,61.94
2022-08-09T17:51:21.742Z,62.12
2022-08-09T17:53:55.116Z,62.17
2022-08-09T17:56:35.525Z,62.01
2022-08-09T17:59:09.104Z,61.99
2022-08-09T18:02:06.824Z,62.36
2022-08-09T18:04:33.195Z,62.37
2022-08-09T18:07:04.693Z,62.41
2022-08-09T18:09:41.501Z,62.35
2022-08-09T18:12:20.095Z,62.37
2022-08-09T18:14:54.982Z,62.45
2022-08-09T18:17:27.075Z,62.40
2022-08-09T18:21:00.240Z,62.74
2022-08-09T18:23:05.824Z,62.64
2022-08-09T18:25:50.736Z,62.71
2022-08-09T18:30:41.749Z,62.92
2022-08-09T18:31:14.275Z,63.06
2022-08-09T18:33:48.858Z,63.02
2022-08-09T18:36:32.150Z,63.25
2022-08-09T18:39:06.184Z,63.22
2022-08-09T18:41:36.516Z,63.31
2022-08-09T18:44:13.143Z,63.38
2022-08-09T18:46:47.375Z,63.52
2022-08-09T18:49:32.197Z,63.49
2022-08-09T18:52:11.669Z,63.63
2022-08-09T18:54:49.796Z,63.91
2022-08-09T18:57:23.839Z,64.13
2022-08-09T19:00:01.508Z,64.28
2022-08-09T19:06:02.883Z,64.40
2022-08-09T19:08:32.412Z,64.37
2022-08-09T19:11:00.731Z,64.55
2022-08-09T19:13:38.080Z,64.46
2022-08-09T19:16:21.038Z,64.80
2022-08-09T19:18:49.749Z,65.04
2022-08-09T19:21:18.965Z,65.37
2022-08-09T19:24:36.588Z,65.27
2022-08-09T19:26:40.367Z,65.54
2022-08-09T19:29:18.091Z,65.55
2022-08-09T19:31:51.534Z,65.75
2022-08-09T19:34:23.066Z,66.02
2022-08-09T19:36:57.724Z,66.35
2022-08-09T19:39:42.980Z,66.44
2022-08-09T19:42:14.994Z,66.52
2022-08-09T19:44:51.264Z,66.86
2022-08-09T19:47:23.249Z,66.73
2022-08-09T19:50:07.253Z,67.25
2022-08-09T19:52:49.653Z,67.22
2022-08-09T19:55:30.897Z,67.26
2022-08-09T19:58:16.429Z,67.29
2022-08-09T20:00:48.104Z,67.50
2022-08-09T20:04:26.514Z,67.77
2022-08-09T20:06:22.408Z,67.94
2022-08-09T20:09:03.879Z,68.11
2022-08-09T20:11:52.046Z,67.99
2022-08-09T20:14:50.422Z,68.20
2022-08-09T20:20:27.160Z,68.75
2022-08-09T20:22:58.308Z,69.07
2022-08-09T20:25:29.558Z,69.10
2022-08-09T20:28:27.570Z,69.17
2022-08-09T20:31:09.085Z,69.10
2022-08-09T20:33:43.804Z,69.23
2022-08-09T20:36:14.427Z,69.39
2022-08-09T20:41:37.673Z,69.26
2022-08-09T20:44:10.005Z,69.42
2022-08-09T20:46:43.911Z,69.41
2022-08-09T20:49:15.951Z,69.42
2022-08-09T20:51:50.805Z,69.96
2022-08-09T20:54:19.362Z,69.89
2022-08-09T20:56:49.457Z,70.03
2022-08-09T20:59:50.218Z,70.08
2022-08-09T21:02:17.637Z,70.29
2022-08-09T21:05:56.732Z,70.48
2022-08-09T21:07:40.233Z,70.45
2022-08-09T21:10:13.014Z,70.56
2022-08-09T21:15:33.949Z,70.76
2022-08-09T21:18:22.357Z,70.99
2022-08-09T21:20:54.401Z,71.10
2022-08-09T21:23:35.945Z,71.21
2022-08-09T21:26:12.799Z,71.11
2022-08-09T21:28:51.841Z,71.16
2022-08-09T21:31:24.721Z,71.20
2022-08-09T21:34:14.778Z,70.90
2022-08-09T21:36:57.286Z,71.18
2022-08-09T21:39:41.671Z,71.06
2022-08-09T21:42:11.309Z,70.99
2022-08-09T21:44:42.762Z,71.34
2022-08-09T21:47:14.167Z,71.63
2022-08-09T21:49:46.638Z,71.96
2022-08-09T21:52:20.391Z,72.16
2022-08-09T21:55:04.436Z,72.08
2022-08-09T21:57:38.586Z,71.96
2022-08-09T22:00:33.256Z,71.93
2022-08-09T22:03:06.134Z,72.06
2022-08-09T22:05:41.726Z,71.76
2022-08-09T22:08:14.720Z,71.79
2022-08-09T22:11:00.169Z,71.93
2022-08-09T22:13:35.748Z,72.09
2022-08-09T22:16:07.458Z,72.12
2022-08-09T22:18:52.121Z,72.24
2022-08-09T22:21:44.804Z,72.42
2022-08-09T22:24:17.216Z,72.40
2022-08-09T22:26:51.509Z,72.43
2022-08-09T22:29:28.400Z,72.58
2022-08-09T22:32:01.293Z,72.80
2022-08-09T22:34:29.556Z,72.91
2022-08-09T22:36:59.331Z,72.77
2022-08-09T22:39:55.512Z,72.73
2022-08-09T22:42:22.595Z,72.86
2022-08-09T22:45:00.396Z,73.15
2022-08-09T22:48:13.804Z,73.44
2022-08-09T22:50:32.919Z,73.65
2022-08-09T22:53:03.914Z,73.81
2022-08-09T22:56:06.500Z,73.82
2022-08-09T22:58:33.134Z,74.00
2022-08-09T23:01:03.670Z,73.96
2022-08-09T23:04:03.596Z,74.01
2022-08-09T23:06:35.118Z,73.76
2022-08-09T23:09:06.539Z,73.66
2022-08-09T23:11:37.113Z,73.63
2022-08-09T23:14:09.949Z,73.84
2022-08-09T23:16:39.346Z,73.52
2022-08-09T23:19:07.650Z,73.61
2022-08-09T23:21:36.758Z,73.60
2022-08-09T23:24:08.316Z,73.75
2022-08-09T23:26:38.156Z,73.65
2022-08-09T23:29:08.566Z,73.87
2022-08-09T23:31:37.385Z,73.96
2022-08-09T23:34:05.983Z,73.86
2022-08-09T23:36:35.406Z,74.00
2022-08-09T23:39:06.726Z,74.06
2022-08-09T23:41:35.688Z,74.23
2022-08-09T23:44:04.615Z,74.13
2022-08-09T23:46:33.028Z,73.95
2022-08-09T23:49:02.248Z,74.23
2022-08-09T23:51:30.512Z,74.52
2022-08-09T23:54:02.465Z,74.71
2022-08-09T23:56:53.766Z,74.40
2022-08-09T23:59:24.660Z,74.77
